createdAt,value
2018-12-22T00:01:25.821Z,12.40
2018-12-22T00:03:55.652Z,12.20
2018-12-22T00:06:25.585Z,12.10
2018-12-22T00:08:56.613Z,12.00
2018-12-22T00:11:26.533Z,12.00
2018-12-22T00:13:56.441Z,12.00
2018-12-22T00:16:26.357Z,12.00
2018-12-22T00:18:56.377Z,12.00
2018-12-22T00:21:26.244Z,12.00
2018-12-22T00:23:56.228Z,11.90
2018-12-22T00:26:26.121Z,11.80
2018-12-22T00:28:56.139Z,11.80
2018-12-22T00:31:26.084Z,11.80
2018-12-22T00:33:56.026Z,11.80
2018-12-22T00:36:25.989Z,11.80
2018-12-22T00:38:55.902Z,12.00
2018-12-22T00:41:25.813Z,12.00
2018-12-22T00:43:55.628Z,12.00
2018-12-22T00:46:25.553Z,11.90
2018-12-22T00:48:55.561Z,11.90
2018-12-22T00:51:25.386Z,11.80
2018-12-22T00:53:55.301Z,11.80
2018-12-22T00:56:25.100Z,11.80
2018-12-22T00:58:55.126Z,11.80
2018-12-22T01:01:25.268Z,11.80
2018-12-22T01:03:55.219Z,11.80
2018-12-22T01:06:25.205Z,11.70
2018-12-22T01:08:55.118Z,11.60
2018-12-22T01:11:25.106Z,11.60
2018-12-22T01:13:55.121Z,11.50
2018-12-22T01:16:24.932Z,11.50
2018-12-22T01:18:54.949Z,11.50
2018-12-22T01:21:24.897Z,11.40
2018-12-22T01:23:54.943Z,11.40
2018-12-22T01:26:24.880Z,11.40
2018-12-22T01:28:54.816Z,11.50
2018-12-22T01:31:24.764Z,11.60
2018-12-22T01:33:54.645Z,11.60
2018-12-22T01:36:24.561Z,11.50
2018-12-22T01:38:54.582Z,11.50
2018-12-22T01:41:24.451Z,11.50
2018-12-22T01:43:54.438Z,11.50
2018-12-22T01:46:24.325Z,11.50
2018-12-22T01:48:54.346Z,11.40
2018-12-22T01:51:24.257Z,11.40
2018-12-22T01:53:54.128Z,11.40
2018-12-22T01:56:24.085Z,11.40
2018-12-22T01:58:54.009Z,11.40
2018-12-22T02:01:23.922Z,11.30
2018-12-22T02:03:54.138Z,11.30
2018-12-22T02:06:23.969Z,11.20
2018-12-22T02:08:53.969Z,11.20
2018-12-22T02:11:24.029Z,11.10
2018-12-22T02:13:53.959Z,11.20
2018-12-22T02:16:24.020Z,11.30
2018-12-22T02:18:54.074Z,11.30
2018-12-22T02:21:23.966Z,11.20
2018-12-22T02:23:53.900Z,11.30
2018-12-22T02:26:23.785Z,11.30
2018-12-22T02:28:56.843Z,11.40
2018-12-22T02:31:25.765Z,11.40
2018-12-22T02:33:55.698Z,11.30
2018-12-22T02:36:25.698Z,11.30
2018-12-22T02:38:55.720Z,11.30
2018-12-22T02:41:25.777Z,11.30
2018-12-22T02:43:55.646Z,11.30
2018-12-22T02:46:25.629Z,11.30
2018-12-22T02:48:55.478Z,11.40
2018-12-22T02:51:25.494Z,11.40
2018-12-22T02:53:55.414Z,11.40
2018-12-22T02:56:25.228Z,11.50
2018-12-22T02:58:55.241Z,11.60
2018-12-22T03:01:25.059Z,11.70
2018-12-22T03:03:55.274Z,11.70
2018-12-22T03:06:25.216Z,11.60
2018-12-22T03:08:55.111Z,11.60
2018-12-22T03:11:25.017Z,11.60
2018-12-22T03:13:54.838Z,11.70
2018-12-22T03:16:24.759Z,11.60
2018-12-22T03:18:54.792Z,11.60
2018-12-22T03:21:24.442Z,11.60
2018-12-22T03:23:54.442Z,11.60
2018-12-22T03:26:24.320Z,11.70
2018-12-22T03:28:54.349Z,11.70
2018-12-22T03:31:24.245Z,11.70
2018-12-22T03:33:54.151Z,11.70
2018-12-22T03:36:23.984Z,11.70
2018-12-22T03:38:53.982Z,11.70
2018-12-22T03:41:23.928Z,11.70
2018-12-22T03:43:53.832Z,11.70
2018-12-22T03:46:23.757Z,11.70
2018-12-22T03:48:53.685Z,11.60
2018-12-22T03:51:23.684Z,11.60
2018-12-22T03:53:53.677Z,11.60
2018-12-22T03:56:23.589Z,11.60
2018-12-22T03:58:53.710Z,11.60
2018-12-22T04:01:23.525Z,11.70
2018-12-22T04:03:53.437Z,11.70
2018-12-22T04:06:23.384Z,11.70
2018-12-22T04:08:53.270Z,11.60
2018-12-22T04:11:23.220Z,11.60
2018-12-22T04:13:53.097Z,11.60
2018-12-22T04:16:23.080Z,11.60
2018-12-22T04:18:52.928Z,11.60
2018-12-22T04:21:22.842Z,11.60
2018-12-22T04:23:52.810Z,11.70
2018-12-22T04:26:22.778Z,11.70
2018-12-22T04:28:52.792Z,11.70
2018-12-22T04:31:22.613Z,11.70
2018-12-22T04:33:52.522Z,11.70
2018-12-22T04:36:22.437Z,11.70
2018-12-22T04:38:52.407Z,11.70
2018-12-22T04:41:22.382Z,11.70
2018-12-22T04:43:52.180Z,11.70
2018-12-22T04:46:22.098Z,11.60
2018-12-22T04:48:52.169Z,11.50
2018-12-22T04:51:22.164Z,11.40
2018-12-22T04:53:52.202Z,11.40
2018-12-22T04:56:22.064Z,11.40
2018-12-22T04:58:52.108Z,11.40
2018-12-22T05:01:22.096Z,11.50
2018-12-22T05:03:51.966Z,11.50
2018-12-22T05:06:21.870Z,11.50
2018-12-22T05:08:51.750Z,11.50
2018-12-22T05:11:21.654Z,11.50
2018-12-22T05:13:51.474Z,11.60
2018-12-22T05:16:21.381Z,11.60
2018-12-22T05:18:51.426Z,11.60
2018-12-22T05:21:21.371Z,11.60
2018-12-22T05:23:51.329Z,11.70
2018-12-22T05:26:21.140Z,11.70
2018-12-22T05:28:51.162Z,11.70
2018-12-22T05:31:21.104Z,11.70
2018-12-22T05:33:50.989Z,11.70
2018-12-22T05:36:20.906Z,11.70
2018-12-22T05:38:50.841Z,11.70
2018-12-22T05:41:20.734Z,11.70
2018-12-22T05:43:50.676Z,11.60
2018-12-22T05:46:20.567Z,11.60
2018-12-22T05:48:50.585Z,11.50
2018-12-22T05:51:20.405Z,11.50
2018-12-22T05:53:50.308Z,11.50
2018-12-22T05:56:20.175Z,11.50
2018-12-22T05:58:50.141Z,11.50
2018-12-22T06:01:20.055Z,11.50
2018-12-22T06:03:49.974Z,11.60
2018-12-22T06:06:19.915Z,11.60
2018-12-22T06:08:49.909Z,11.60
2018-12-22T06:11:19.816Z,11.60
2018-12-22T06:13:49.762Z,11.50
2018-12-22T06:16:19.645Z,11.40
2018-12-22T06:18:49.669Z,11.40
2018-12-22T06:21:19.472Z,11.30
2018-12-22T06:23:49.394Z,11.30
2018-12-22T06:26:19.337Z,11.20
2018-12-22T06:28:49.253Z,11.20
2018-12-22T06:31:19.273Z,11.20
2018-12-22T06:33:49.157Z,11.10
2018-12-22T06:36:19.280Z,11.10
2018-12-22T06:38:49.322Z,11.10
2018-12-22T06:41:19.204Z,11.10
2018-12-22T06:43:49.122Z,11.10
2018-12-22T06:46:19.067Z,11.00
2018-12-22T06:48:48.961Z,11.10
2018-12-22T06:51:18.892Z,11.00
2018-12-22T06:53:48.943Z,11.00
2018-12-22T06:56:18.900Z,11.00
2018-12-22T06:58:48.944Z,10.90
2018-12-22T07:01:18.832Z,10.90
2018-12-22T07:03:48.779Z,10.90
2018-12-22T07:06:19.000Z,10.90
2018-12-22T07:08:48.989Z,10.90
2018-12-22T07:11:18.905Z,11.00
2018-12-22T07:13:48.718Z,11.20
2018-12-22T07:16:18.634Z,11.20
2018-12-22T07:18:48.556Z,11.30
2018-12-22T07:21:18.465Z,11.40
2018-12-22T07:23:48.407Z,11.40
2018-12-22T07:26:18.194Z,11.50
2018-12-22T07:28:48.233Z,11.50
2018-12-22T07:31:18.120Z,11.60
2018-12-22T07:33:48.041Z,11.50
2018-12-22T07:36:18.769Z,11.50
2018-12-22T07:38:48.823Z,11.50
2018-12-22T07:41:18.760Z,11.50
2018-12-22T07:43:48.722Z,11.50
2018-12-22T07:46:18.547Z,11.50
2018-12-22T07:48:48.548Z,11.50
2018-12-22T07:51:18.668Z,11.50
2018-12-22T07:53:48.481Z,11.50
2018-12-22T07:56:18.663Z,11.50
2018-12-22T07:58:48.645Z,11.50
2018-12-22T08:01:19.901Z,11.60
2018-12-22T08:03:50.017Z,11.60
2018-12-22T08:06:19.959Z,11.60
2018-12-22T08:08:50.846Z,11.50
2018-12-22T08:11:20.956Z,11.50
2018-12-22T08:13:50.873Z,11.50
2018-12-22T08:16:20.685Z,11.50
2018-12-22T08:18:50.701Z,11.50
2018-12-22T08:21:20.521Z,11.40
2018-12-22T08:23:50.329Z,11.40
2018-12-22T08:26:20.302Z,11.40
2018-12-22T08:28:50.169Z,11.40
2018-12-22T08:31:20.117Z,11.40
2018-12-22T08:33:50.014Z,11.50
2018-12-22T08:36:20.005Z,11.50
2018-12-22T08:38:50.053Z,11.50
2018-12-22T08:41:19.995Z,11.50
2018-12-22T08:43:49.857Z,11.50
2018-12-22T08:46:19.666Z,11.50
2018-12-22T08:48:49.688Z,11.50
2018-12-22T08:51:19.600Z,11.50
2018-12-22T08:53:49.520Z,11.60
2018-12-22T08:56:19.453Z,11.60
2018-12-22T08:58:49.341Z,11.60
2018-12-22T09:01:19.260Z,11.60
2018-12-22T09:03:48.825Z,11.60
2018-12-22T09:06:18.686Z,11.70
2018-12-22T09:08:48.596Z,11.70
2018-12-22T09:11:18.519Z,11.70
2018-12-22T09:13:48.373Z,11.70
2018-12-22T09:16:18.340Z,11.80
2018-12-22T09:18:48.357Z,11.80
2018-12-22T09:21:18.189Z,11.90
2018-12-22T09:23:48.180Z,11.90
2018-12-22T09:26:18.102Z,11.90
2018-12-22T09:28:48.077Z,11.90
2018-12-22T09:31:18.053Z,11.90
2018-12-22T09:33:48.018Z,12.00
2018-12-22T09:36:17.976Z,12.10
2018-12-22T09:38:48.012Z,12.20
2018-12-22T09:41:17.987Z,12.30
2018-12-22T09:43:48.023Z,12.40
2018-12-22T09:46:17.888Z,12.40
2018-12-22T09:48:49.835Z,12.50
2018-12-22T09:51:19.841Z,12.50
2018-12-22T09:53:49.781Z,12.60
2018-12-22T09:56:19.741Z,12.60
2018-12-22T09:58:49.683Z,12.70
2018-12-22T10:01:19.681Z,12.70
2018-12-22T10:03:49.621Z,12.80
2018-12-22T10:06:19.564Z,12.80
2018-12-22T10:08:49.550Z,12.80
2018-12-22T10:11:19.575Z,12.90
2018-12-22T10:13:49.658Z,13.00
2018-12-22T10:16:19.604Z,13.00
2018-12-22T10:18:49.497Z,13.20
2018-12-22T10:21:19.437Z,13.50
2018-12-22T10:23:49.442Z,13.90
2018-12-22T10:26:19.446Z,14.10
2018-12-22T10:28:49.486Z,14.40
2018-12-22T10:31:19.475Z,14.90
2018-12-22T10:33:49.388Z,15.60
2018-12-22T10:36:19.269Z,15.90
2018-12-22T10:38:49.116Z,16.40
2018-12-22T10:41:19.056Z,17.10
2018-12-22T10:43:49.076Z,18.60
2018-12-22T10:46:19.064Z,19.60
2018-12-22T10:48:49.116Z,20.30
2018-12-22T10:51:24.174Z,20.10
2018-12-22T10:53:51.019Z,19.40
2018-12-22T10:56:20.880Z,19.10
2018-12-22T10:58:50.817Z,19.10
2018-12-22T11:01:26.519Z,19.30
2018-12-22T11:03:53.086Z,18.90
2018-12-22T11:06:23.026Z,18.40
2018-12-22T11:08:52.972Z,18.20
2018-12-22T11:11:22.834Z,18.00
2018-12-22T11:13:52.841Z,17.40
2018-12-22T11:16:22.758Z,16.90
2018-12-22T11:18:52.780Z,17.20
2018-12-22T11:21:22.601Z,17.30
2018-12-22T11:23:52.504Z,17.60
2018-12-22T11:26:22.309Z,17.70
2018-12-22T11:28:52.329Z,18.20
2018-12-22T11:31:22.302Z,18.50
2018-12-22T11:33:52.190Z,18.20
2018-12-22T11:36:22.176Z,17.70
2018-12-22T11:38:52.105Z,18.10
2018-12-22T11:41:22.006Z,17.90
2018-12-22T11:43:51.925Z,17.60
2018-12-22T11:46:21.795Z,18.00
2018-12-22T11:49:11.675Z,18.80
2018-12-22T11:51:41.591Z,18.60
2018-12-22T11:54:11.581Z,19.40
2018-12-22T11:56:41.469Z,20.50
2018-12-22T11:59:11.482Z,21.60
2018-12-22T12:01:43.648Z,21.70
2018-12-22T12:04:13.599Z,20.90
2018-12-22T12:06:43.538Z,21.00
2018-12-22T12:09:14.477Z,21.60
2018-12-22T12:11:44.438Z,22.60
2018-12-22T12:14:14.306Z,23.00
2018-12-22T12:18:58.470Z,23.10
2018-12-22T12:21:28.444Z,23.30
2018-12-22T12:24:00.402Z,23.50
2018-12-22T12:26:30.309Z,24.00
2018-12-22T12:29:00.224Z,24.70
2018-12-22T12:31:30.164Z,25.20
2018-12-22T12:34:01.107Z,25.30
2018-12-22T12:36:30.994Z,25.70
2018-12-22T12:39:01.008Z,25.40
2018-12-22T12:41:30.957Z,26.00
2018-12-22T12:44:00.897Z,26.20
2018-12-22T12:46:44.990Z,25.50
2018-12-22T12:49:15.621Z,24.20
2018-12-22T12:51:45.569Z,24.20
2018-12-22T12:54:15.654Z,24.90
2018-12-22T12:56:57.711Z,25.30
2018-12-22T12:59:28.827Z,25.40
2018-12-22T13:02:01.267Z,25.50
2018-12-22T13:04:31.085Z,25.60
2018-12-22T13:07:00.957Z,26.00
2018-12-22T13:09:31.042Z,25.10
2018-12-22T13:12:07.589Z,22.80
2018-12-22T13:14:37.402Z,22.90
2018-12-22T13:17:07.319Z,23.90
2018-12-22T13:19:37.349Z,24.10
2018-12-22T13:22:07.351Z,24.90
2018-12-22T13:24:37.397Z,24.20
2018-12-22T13:27:07.449Z,23.30
2018-12-22T13:29:37.431Z,24.20
2018-12-22T13:32:09.829Z,24.60
2018-12-22T13:34:39.201Z,24.20
2018-12-22T13:37:09.225Z,23.60
2018-12-22T13:39:39.142Z,21.90
2018-12-22T13:42:09.134Z,21.70
2018-12-22T13:44:39.075Z,21.80
2018-12-22T13:47:08.977Z,22.10
2018-12-22T13:49:38.979Z,22.10
2018-12-22T13:52:09.021Z,22.00
2018-12-22T13:54:39.009Z,21.70
2018-12-22T13:57:08.953Z,21.40
2018-12-22T13:59:38.955Z,21.90
2018-12-22T14:02:14.389Z,22.00
2018-12-22T14:04:41.250Z,21.70
2018-12-22T14:07:12.577Z,21.20
2018-12-22T14:09:42.598Z,21.30
2018-12-22T14:12:12.614Z,20.70
2018-12-22T14:14:43.097Z,19.90
2018-12-22T14:17:22.510Z,19.40
2018-12-22T14:19:56.730Z,18.80
2018-12-22T14:22:26.637Z,18.60
2018-12-22T14:24:57.173Z,18.40
2018-12-22T14:27:27.089Z,18.30
2018-12-22T14:29:56.969Z,18.30
2018-12-22T14:32:27.241Z,18.40
2018-12-22T14:35:11.952Z,18.50
2018-12-22T14:37:41.968Z,18.60
2018-12-22T14:40:12.396Z,18.50
2018-12-22T14:42:42.268Z,18.20
2018-12-22T14:45:13.202Z,17.80
2018-12-22T14:47:43.268Z,17.30
2018-12-22T14:50:13.411Z,17.10
2018-12-22T14:52:43.445Z,17.00
2018-12-22T14:55:13.426Z,17.20
2018-12-22T14:57:48.182Z,17.10
2018-12-22T15:00:18.092Z,17.00
2018-12-22T15:02:48.085Z,16.90
2018-12-22T15:05:17.942Z,16.80
2018-12-22T15:07:48.019Z,16.70
2018-12-22T15:10:18.442Z,16.50
2018-12-22T15:12:48.314Z,16.30
2018-12-22T15:15:18.377Z,16.20
2018-12-22T15:17:48.424Z,15.90
2018-12-22T15:20:20.281Z,15.60
2018-12-22T15:22:50.281Z,15.30
2018-12-22T15:25:20.094Z,15.10
2018-12-22T15:27:50.137Z,14.90
2018-12-22T15:30:20.117Z,14.70
2018-12-22T15:32:54.341Z,14.60
2018-12-22T15:35:22.009Z,14.50
2018-12-22T15:37:51.971Z,14.40
2018-12-22T15:40:21.952Z,14.20
2018-12-22T15:42:51.889Z,14.20
2018-12-22T15:45:21.861Z,14.00
2018-12-22T15:47:51.904Z,13.80
2018-12-22T15:50:23.532Z,13.70
2018-12-22T15:52:53.560Z,13.50
2018-12-22T15:55:23.500Z,13.40
2018-12-22T15:57:53.427Z,13.20
2018-12-22T16:00:23.398Z,13.10
2018-12-22T16:02:53.655Z,12.90
2018-12-22T16:05:23.682Z,12.80
2018-12-22T16:07:53.684Z,12.70
2018-12-22T16:10:23.692Z,12.60
2018-12-22T16:12:53.797Z,12.50
2018-12-22T16:15:23.560Z,12.40
2018-12-22T16:17:54.579Z,12.30
2018-12-22T16:20:24.476Z,12.20
2018-12-22T16:22:57.965Z,12.10
2018-12-22T16:25:28.289Z,12.00
2018-12-22T16:28:02.732Z,11.90
2018-12-22T16:30:38.786Z,11.80
2018-12-22T16:33:08.781Z,11.70
2018-12-22T16:35:38.652Z,11.60
2018-12-22T16:38:09.764Z,11.40
2018-12-22T16:40:39.757Z,11.40
2018-12-22T16:43:12.393Z,11.30
2018-12-22T16:45:45.273Z,11.30
2018-12-22T16:48:16.360Z,11.20
2018-12-22T16:50:47.335Z,11.10
2018-12-22T16:53:17.315Z,11.10
2018-12-22T16:55:47.235Z,11.00
2018-12-22T16:58:28.617Z,10.90
2018-12-22T17:01:03.093Z,10.80
2018-12-22T17:03:33.185Z,10.80
2018-12-22T17:06:05.483Z,10.70
2018-12-22T17:08:37.579Z,10.60
2018-12-22T17:11:08.434Z,10.50
2018-12-22T17:13:38.377Z,10.50
2018-12-22T17:16:09.462Z,10.50
2018-12-22T17:18:39.338Z,10.50
2018-12-22T17:21:18.286Z,10.50
2018-12-22T17:24:01.766Z,10.50
2018-12-22T17:26:33.645Z,10.50
2018-12-22T17:29:03.638Z,10.50
2018-12-22T17:31:33.452Z,10.50
2018-12-22T17:34:03.365Z,10.50
2018-12-22T17:36:33.190Z,10.50
2018-12-22T17:39:04.017Z,10.50
2018-12-22T17:41:33.933Z,10.50
2018-12-22T17:44:03.845Z,10.50
2018-12-22T17:46:33.761Z,10.50
2018-12-22T17:49:03.808Z,10.50
2018-12-22T17:51:33.702Z,10.50
2018-12-22T17:54:03.609Z,10.60
2018-12-22T17:56:33.437Z,10.60
2018-12-22T17:59:03.541Z,10.60
2018-12-22T18:01:33.494Z,10.60
2018-12-22T18:04:03.532Z,10.60
2018-12-22T18:06:33.858Z,10.60
2018-12-22T18:09:04.712Z,10.70
2018-12-22T18:11:34.653Z,10.70
2018-12-22T18:14:04.549Z,10.70
2018-12-22T18:16:34.545Z,10.80
2018-12-22T18:19:04.424Z,10.80
2018-12-22T18:21:34.422Z,10.80
2018-12-22T18:24:04.356Z,10.80
2018-12-22T18:26:34.274Z,10.80
2018-12-22T18:29:04.298Z,10.80
2018-12-22T18:31:34.177Z,10.80
2018-12-22T18:34:04.198Z,10.80
2018-12-22T18:36:34.348Z,10.80
2018-12-22T18:39:05.385Z,10.80
2018-12-22T18:41:35.302Z,10.80
2018-12-22T18:44:05.188Z,10.80
2018-12-22T18:46:35.208Z,10.80
2018-12-22T18:49:05.116Z,10.80
2018-12-22T18:51:35.040Z,10.80
2018-12-22T18:54:04.977Z,10.80
2018-12-22T18:56:34.895Z,10.80
2018-12-22T18:59:04.893Z,10.80
2018-12-22T19:01:34.714Z,10.80
2018-12-22T19:04:04.709Z,10.70
2018-12-22T19:06:34.683Z,10.80
2018-12-22T19:09:09.892Z,10.70
2018-12-22T19:11:39.837Z,10.70
2018-12-22T19:14:09.798Z,10.70
2018-12-22T19:16:39.776Z,10.70
2018-12-22T19:19:09.730Z,10.60
2018-12-22T19:21:39.654Z,10.60
2018-12-22T19:24:09.561Z,10.60
2018-12-22T19:26:39.509Z,10.60
2018-12-22T19:29:09.398Z,10.60
2018-12-22T19:31:41.858Z,10.60
2018-12-22T19:34:11.431Z,10.60
2018-12-22T19:36:41.284Z,10.50
2018-12-22T19:39:11.409Z,10.50
2018-12-22T19:41:41.351Z,10.50
2018-12-22T19:44:11.242Z,10.50
2018-12-22T19:46:41.253Z,10.50
2018-12-22T19:49:11.297Z,10.60
2018-12-22T19:51:41.185Z,10.60
2018-12-22T19:54:11.124Z,10.60
2018-12-22T19:56:41.145Z,10.60
2018-12-22T19:59:11.040Z,10.60
2018-12-22T20:01:41.211Z,10.60
2018-12-22T20:04:11.179Z,10.60
2018-12-22T20:06:41.144Z,10.60
2018-12-22T20:09:12.183Z,10.60
2018-12-22T20:11:42.263Z,10.60
2018-12-22T20:14:12.162Z,10.60
2018-12-22T20:16:42.141Z,10.60
2018-12-22T20:19:12.098Z,10.70
2018-12-22T20:21:42.041Z,10.60
2018-12-22T20:24:12.031Z,10.60
2018-12-22T20:26:41.941Z,10.60
2018-12-22T20:29:11.752Z,10.60
2018-12-22T20:31:41.673Z,10.60
2018-12-22T20:34:11.571Z,10.70
2018-12-22T20:36:41.603Z,10.70
2018-12-22T20:39:11.650Z,10.70
2018-12-22T20:41:41.535Z,10.70
2018-12-22T20:44:11.455Z,10.70
2018-12-22T20:46:41.257Z,10.70
2018-12-22T20:49:11.283Z,10.70
2018-12-22T20:51:41.217Z,10.70
2018-12-22T20:54:11.164Z,10.70
2018-12-22T20:56:41.126Z,10.80
2018-12-22T20:59:12.636Z,10.80
2018-12-22T21:01:42.693Z,10.90
2018-12-22T21:04:19.863Z,10.90
2018-12-22T21:06:44.732Z,10.90
2018-12-22T21:09:15.718Z,11.00
2018-12-22T21:11:45.995Z,11.00
2018-12-22T21:14:15.854Z,11.00
2018-12-22T21:16:45.886Z,11.10
2018-12-22T21:19:15.921Z,11.10
2018-12-22T21:21:45.823Z,11.00
2018-12-22T21:24:15.828Z,11.10
2018-12-22T21:26:45.654Z,11.10
2018-12-22T21:29:15.753Z,11.10
2018-12-22T21:31:45.828Z,11.10
2018-12-22T21:34:15.743Z,11.10
2018-12-22T21:36:45.706Z,11.10
2018-12-22T21:39:15.654Z,11.10
2018-12-22T21:41:45.637Z,11.10
2018-12-22T21:44:15.607Z,11.10
2018-12-22T21:46:45.465Z,11.10
2018-12-22T21:49:15.513Z,11.10
2018-12-22T21:51:45.463Z,11.10
2018-12-22T21:54:15.417Z,11.10
2018-12-22T21:56:45.357Z,11.10
2018-12-22T21:59:15.273Z,11.20
2018-12-22T22:01:45.265Z,11.20
2018-12-22T22:04:15.080Z,11.20
2018-12-22T22:06:44.989Z,11.20
2018-12-22T22:09:15.038Z,11.20
2018-12-22T22:11:44.956Z,11.20
2018-12-22T22:14:14.979Z,11.20
2018-12-22T22:16:44.869Z,11.20
2018-12-22T22:19:14.875Z,11.10
2018-12-22T22:21:44.805Z,11.20
2018-12-22T22:24:14.759Z,11.20
2018-12-22T22:26:44.721Z,11.20
2018-12-22T22:29:14.591Z,11.20
2018-12-22T22:31:44.584Z,11.20
2018-12-22T22:34:14.579Z,11.20
2018-12-22T22:36:44.481Z,11.20
2018-12-22T22:39:14.425Z,11.20
2018-12-22T22:41:44.413Z,11.20
2018-12-22T22:44:14.357Z,11.20
2018-12-22T22:46:44.304Z,11.20
2018-12-22T22:49:14.292Z,11.20
2018-12-22T22:51:44.176Z,11.20
2018-12-22T22:54:14.196Z,11.30
2018-12-22T22:56:44.108Z,11.30
2018-12-22T22:59:14.083Z,11.40
2018-12-22T23:01:44.068Z,11.40
2018-12-22T23:04:14.024Z,11.40
2018-12-22T23:06:43.972Z,11.40
2018-12-22T23:09:14.016Z,11.40
2018-12-22T23:11:43.917Z,11.40
2018-12-22T23:14:13.826Z,11.40
2018-12-22T23:16:43.637Z,11.40
2018-12-22T23:19:13.678Z,11.50
2018-12-22T23:21:43.697Z,11.50
2018-12-22T23:24:13.585Z,11.60
2018-12-22T23:26:43.497Z,11.60
2018-12-22T23:29:13.312Z,11.60
2018-12-22T23:31:43.289Z,11.60
2018-12-22T23:34:13.373Z,11.60
2018-12-22T23:36:43.256Z,11.70
2018-12-22T23:39:13.276Z,11.70
2018-12-22T23:41:43.220Z,11.70
2018-12-22T23:44:13.166Z,11.80
2018-12-22T23:46:43.125Z,11.80
2018-12-22T23:49:13.046Z,11.80
2018-12-22T23:51:42.953Z,11.80
2018-12-22T23:54:12.877Z,11.80
2018-12-22T23:56:42.946Z,11.80
2018-12-22T23:59:16.519Z,11.80
